Radisson, Wisconsin
Current Conditions -  °F | °C
As of 2:53 AM on Monday 22 Dec 2014 (Local Time) from KHYR Reporting Station
Light Rain Light Rain  
Wind Chill: 29°   Ceiling: 800
Heat Index: 35°   Visibility: 8mi
Dew Point: 32°   Wind: 8mph
Humidity: 89%   Direction: 160°SSE
Pressure: 29.75"   Gusts: NA
Location:  45.77°N, 91.22°W
Report Text: KHYR 220853Z AUTO 16007KT 8SM -RA BKN008 OVC014 02/00 A2975 RMK AO2 RAB24SNE24 CIG 007V012 SLP087 P0002 60006 T00170000 57005
Loading
Personal Weather Stations






























Interactive Weather Map New forecast layout! Learn more

10-Day Weather Forecast

Advertisements
Track Severe Weather on mobile